createdAt,value
2023-05-16T00:00:49.036Z,100150.23
2023-05-16T00:02:00.405Z,100148.02
2023-05-16T00:03:03.470Z,100147.05
2023-05-16T00:04:06.629Z,100147.30
2023-05-16T00:05:10.747Z,100147.52
2023-05-16T00:06:13.578Z,100146.08
2023-05-16T00:07:16.502Z,100141.60
2023-05-16T00:08:19.390Z,100139.34
2023-05-16T00:09:22.243Z,100136.92
2023-05-16T00:10:25.175Z,100140.08
2023-05-16T00:11:28.483Z,100139.70
2023-05-16T00:12:32.973Z,100142.55
2023-05-16T00:13:35.877Z,100138.14
2023-05-16T00:14:38.605Z,100135.94
2023-05-16T00:15:41.759Z,100142.55
2023-05-16T00:16:44.625Z,100135.08
2023-05-16T00:17:47.470Z,100137.81
2023-05-16T00:18:51.027Z,100136.42
2023-05-16T00:19:58.263Z,100136.90
2023-05-16T00:21:01.376Z,100136.30
2023-05-16T00:22:04.391Z,100135.73
2023-05-16T00:23:07.103Z,100133.31
2023-05-16T00:24:09.898Z,100133.73
2023-05-16T00:25:12.768Z,100131.13
2023-05-16T00:26:15.607Z,100131.57
2023-05-16T00:27:18.740Z,100131.23
2023-05-16T00:28:21.481Z,100132.73
2023-05-16T00:29:24.536Z,100132.30
2023-05-16T00:30:27.453Z,100131.66
2023-05-16T00:31:30.439Z,100130.54
2023-05-16T00:32:33.396Z,100131.86
2023-05-16T00:33:36.794Z,100133.33
2023-05-16T00:34:39.704Z,100131.96
2023-05-16T00:35:42.498Z,100131.48
2023-05-16T00:36:47.265Z,100128.63
2023-05-16T00:37:51.424Z,100131.76
2023-05-16T00:38:54.154Z,100129.44
2023-05-16T00:39:57.287Z,100129.55
2023-05-16T00:41:00.056Z,100130.42
2023-05-16T00:42:03.137Z,100126.81
2023-05-16T00:43:07.577Z,100131.23
2023-05-16T00:44:10.572Z,100131.55
2023-05-16T00:45:13.357Z,100128.11
2023-05-16T00:46:16.216Z,100129.56
2023-05-16T00:47:18.977Z,100128.77
2023-05-16T00:48:21.681Z,100127.95
2023-05-16T00:49:24.478Z,100125.05
2023-05-16T00:50:27.550Z,100122.56
2023-05-16T00:51:30.863Z,100124.02
2023-05-16T00:52:33.875Z,100123.98
2023-05-16T00:53:37.356Z,100125.59
2023-05-16T00:54:40.088Z,100124.67
2023-05-16T00:55:42.933Z,100121.54
2023-05-16T00:56:45.925Z,100123.16
2023-05-16T00:57:48.714Z,100124.19
2023-05-16T00:58:51.421Z,100123.81
2023-05-16T00:59:54.656Z,100122.96
2023-05-16T01:00:57.474Z,100123.13
2023-05-16T01:02:01.395Z,100124.15
2023-05-16T01:03:07.056Z,100124.27
2023-05-16T01:04:10.203Z,100122.88
2023-05-16T01:05:13.220Z,100124.81
2023-05-16T01:06:16.206Z,100120.98
2023-05-16T01:07:18.908Z,100121.70
2023-05-16T01:08:21.758Z,100122.66
2023-05-16T01:09:24.640Z,100125.73
2023-05-16T01:10:31.394Z,100124.60
2023-05-16T01:11:42.177Z,100124.50
2023-05-16T01:12:47.734Z,100124.10
2023-05-16T01:14:00.120Z,100122.38
2023-05-16T01:15:12.538Z,100130.13
2023-05-16T01:16:20.972Z,100128.44
2023-05-16T01:17:29.450Z,100127.18
2023-05-16T01:18:43.467Z,100131.91
2023-05-16T01:19:48.317Z,100126.58
2023-05-16T01:21:03.964Z,100128.79
2023-05-16T01:22:15.578Z,100127.59
2023-05-16T01:23:37.108Z,100128.88
2023-05-16T01:24:44.332Z,100126.23
2023-05-16T01:26:05.767Z,100129.52
2023-05-16T01:27:10.728Z,100126.63
2023-05-16T01:28:15.694Z,100127.23
2023-05-16T01:29:19.146Z,100130.73
2023-05-16T01:30:21.979Z,100129.86
2023-05-16T01:31:42.755Z,100131.96
2023-05-16T01:32:46.203Z,100133.69
2023-05-16T01:33:49.308Z,100131.60
2023-05-16T01:34:52.337Z,100132.89
2023-05-16T01:36:11.785Z,100135.95
2023-05-16T01:37:24.430Z,100135.15
2023-05-16T01:38:30.597Z,100135.02
2023-05-16T01:39:54.520Z,100136.56
2023-05-16T01:41:04.533Z,100137.05
2023-05-16T01:42:10.222Z,100134.08
2023-05-16T01:43:14.153Z,100135.06
2023-05-16T01:44:22.999Z,100131.55
2023-05-16T01:45:28.232Z,100133.45
2023-05-16T01:46:37.501Z,100131.79
2023-05-16T01:47:41.562Z,100130.21
2023-05-16T01:48:51.451Z,100133.65
2023-05-16T01:49:54.245Z,100129.98
2023-05-16T01:50:57.809Z,100131.05
2023-05-16T01:52:02.183Z,100128.60
2023-05-16T01:53:09.464Z,100126.05
2023-05-16T01:54:13.786Z,100126.45
2023-05-16T01:55:27.950Z,100129.66
2023-05-16T01:56:31.894Z,100125.52
2023-05-16T01:57:36.274Z,100126.91
2023-05-16T01:58:39.348Z,100128.36
2023-05-16T01:59:43.099Z,100127.33
2023-05-16T02:00:46.553Z,100124.50
2023-05-16T02:01:49.614Z,100124.08
2023-05-16T02:02:52.393Z,100126.66
2023-05-16T02:03:55.263Z,100128.19
2023-05-16T02:04:58.075Z,100129.42
2023-05-16T02:06:01.125Z,100131.73
2023-05-16T02:07:04.141Z,100129.48
2023-05-16T02:08:06.903Z,100130.73
2023-05-16T02:09:09.655Z,100134.65
2023-05-16T02:10:16.074Z,100132.41
2023-05-16T02:11:18.960Z,100134.42
2023-05-16T02:12:21.825Z,100134.73
2023-05-16T02:13:24.793Z,100132.84
2023-05-16T02:14:27.949Z,100136.80
2023-05-16T02:15:30.958Z,100135.37
2023-05-16T02:16:35.449Z,100135.84
2023-05-16T02:17:38.443Z,100136.90
2023-05-16T02:18:41.433Z,100138.36
2023-05-16T02:19:44.283Z,100136.89
2023-05-16T02:20:47.684Z,100134.45
2023-05-16T02:21:51.943Z,100139.34
2023-05-16T02:22:54.673Z,100139.33
2023-05-16T02:23:57.404Z,100144.86
2023-05-16T02:25:03.671Z,100142.44
2023-05-16T02:26:06.677Z,100145.06
2023-05-16T02:27:09.668Z,100143.70
2023-05-16T02:28:12.516Z,100143.48
2023-05-16T02:29:16.874Z,100145.10
2023-05-16T02:30:19.789Z,100143.10
2023-05-16T02:31:28.233Z,100145.04
2023-05-16T02:32:31.798Z,100147.40
2023-05-16T02:33:34.791Z,100142.94
2023-05-16T02:34:37.993Z,100144.39
2023-05-16T02:35:40.767Z,100145.41
2023-05-16T02:36:43.623Z,100143.15
2023-05-16T02:37:46.731Z,100143.59
2023-05-16T02:38:49.468Z,100145.32
2023-05-16T02:39:52.268Z,100144.66
2023-05-16T02:40:54.980Z,100144.30
2023-05-16T02:41:57.645Z,100146.34
2023-05-16T02:43:00.586Z,100144.96
2023-05-16T02:44:03.273Z,100146.09
2023-05-16T02:45:06.477Z,100146.58
2023-05-16T02:46:28.764Z,100139.98
2023-05-16T02:47:32.106Z,100145.75
2023-05-16T02:48:35.801Z,100144.27
2023-05-16T02:49:38.564Z,100145.82
2023-05-16T02:50:42.649Z,100147.02
2023-05-16T02:51:45.800Z,100145.73
2023-05-16T02:52:48.578Z,100145.89
2023-05-16T02:53:51.876Z,100147.66
2023-05-16T02:56:00.784Z,100149.01
2023-05-16T02:57:03.698Z,100149.80
2023-05-16T02:58:06.398Z,100148.47
2023-05-16T02:59:09.133Z,100149.27
2023-05-16T03:00:12.828Z,100150.13
2023-05-16T03:01:16.308Z,100147.11
2023-05-16T03:02:19.179Z,100146.48
2023-05-16T03:03:22.131Z,100147.95
2023-05-16T03:04:25.434Z,100150.52
2023-05-16T03:05:28.525Z,100151.77
2023-05-16T03:06:31.601Z,100150.08
2023-05-16T03:07:35.961Z,100151.31
2023-05-16T03:08:41.589Z,100150.04
2023-05-16T03:09:44.328Z,100151.53
2023-05-16T03:10:47.785Z,100151.41
2023-05-16T03:11:50.501Z,100147.37
2023-05-16T03:12:55.578Z,100147.16
2023-05-16T03:14:01.799Z,100149.58
2023-05-16T03:15:05.151Z,100149.79
2023-05-16T03:16:07.958Z,100149.63
2023-05-16T03:17:11.776Z,100153.29
2023-05-16T03:18:14.519Z,100156.08
2023-05-16T03:19:19.089Z,100157.48
2023-05-16T03:20:22.770Z,100159.84
2023-05-16T03:21:26.292Z,100161.13
2023-05-16T03:22:29.125Z,100161.95
2023-05-16T03:23:31.924Z,100161.39
2023-05-16T03:24:34.769Z,100161.23
2023-05-16T03:25:38.236Z,100163.00
2023-05-16T03:26:41.601Z,100162.67
2023-05-16T03:27:44.668Z,100162.52
2023-05-16T03:28:47.614Z,100164.60
2023-05-16T03:29:50.457Z,100163.17
2023-05-16T03:30:53.425Z,100163.92
2023-05-16T03:31:56.408Z,100163.60
2023-05-16T03:32:59.299Z,100161.37
2023-05-16T03:34:02.154Z,100160.62
2023-05-16T03:35:05.235Z,100159.50
2023-05-16T03:36:08.268Z,100161.02
2023-05-16T03:37:11.501Z,100161.79
2023-05-16T03:38:14.306Z,100161.84
2023-05-16T03:39:19.971Z,100160.11
2023-05-16T03:40:22.721Z,100165.98
2023-05-16T03:41:26.574Z,100164.88
2023-05-16T03:42:29.777Z,100164.55
2023-05-16T03:43:32.436Z,100165.35
2023-05-16T03:44:35.393Z,100169.42
2023-05-16T03:45:38.622Z,100167.06
2023-05-16T03:46:41.595Z,100171.41
2023-05-16T03:47:44.365Z,100174.85
2023-05-16T03:48:47.394Z,100174.36
2023-05-16T03:49:50.202Z,100175.54
2023-05-16T03:50:53.185Z,100180.25
2023-05-16T03:51:55.897Z,100182.30
2023-05-16T03:52:58.575Z,100180.34
2023-05-16T03:54:01.464Z,100176.39
2023-05-16T03:55:06.569Z,100177.55
2023-05-16T03:56:09.349Z,100175.41
2023-05-16T03:57:12.265Z,100178.27
2023-05-16T03:58:16.370Z,100181.67
2023-05-16T03:59:19.121Z,100177.33
2023-05-16T04:00:21.845Z,100177.27
2023-05-16T04:01:24.676Z,100183.52
2023-05-16T04:02:27.495Z,100188.10
2023-05-16T04:03:30.393Z,100188.06
2023-05-16T04:04:33.178Z,100191.36
2023-05-16T04:05:36.031Z,100193.91
2023-05-16T04:06:38.887Z,100194.16
2023-05-16T04:07:41.980Z,100194.89
2023-05-16T04:08:45.040Z,100196.97
2023-05-16T04:09:47.803Z,100196.29
2023-05-16T04:10:50.640Z,100201.44
2023-05-16T04:11:53.349Z,100203.77
2023-05-16T04:12:56.221Z,100202.83
2023-05-16T04:13:59.665Z,100205.00
2023-05-16T04:15:03.581Z,100208.38
2023-05-16T04:16:06.446Z,100208.59
2023-05-16T04:17:09.539Z,100209.23
2023-05-16T04:18:13.205Z,100213.04
2023-05-16T04:19:16.501Z,100211.42
2023-05-16T04:20:19.523Z,100206.80
2023-05-16T04:21:22.618Z,100210.27
2023-05-16T04:22:25.680Z,100210.56
2023-05-16T04:23:28.417Z,100210.16
2023-05-16T04:24:31.192Z,100212.80
2023-05-16T04:25:34.423Z,100210.75
2023-05-16T04:26:40.213Z,100206.63
2023-05-16T04:27:43.057Z,100212.34
2023-05-16T04:28:45.966Z,100216.06
2023-05-16T04:29:48.931Z,100215.13
2023-05-16T04:30:51.718Z,100213.52
2023-05-16T04:31:54.552Z,100214.48
2023-05-16T04:32:59.516Z,100223.60
2023-05-16T04:34:02.571Z,100214.98
2023-05-16T04:35:05.651Z,100215.34
2023-05-16T04:36:08.550Z,100215.16
2023-05-16T04:37:11.710Z,100213.74
2023-05-16T04:38:14.436Z,100216.52
2023-05-16T04:39:17.505Z,100217.53
2023-05-16T04:40:20.342Z,100219.98
2023-05-16T04:41:23.993Z,100213.02
2023-05-16T04:42:26.962Z,100218.91
2023-05-16T04:43:30.409Z,100217.41
2023-05-16T04:44:33.259Z,100222.65
2023-05-16T04:45:37.683Z,100219.55
2023-05-16T04:46:41.645Z,100222.11
2023-05-16T04:47:44.520Z,100221.33
2023-05-16T04:48:47.352Z,100225.85
2023-05-16T04:49:50.236Z,100225.73
2023-05-16T04:50:52.970Z,100224.71
2023-05-16T04:51:55.867Z,100223.27
2023-05-16T04:52:58.740Z,100225.85
2023-05-16T04:54:01.543Z,100228.35
2023-05-16T04:55:04.591Z,100226.15
2023-05-16T04:56:07.945Z,100224.05
2023-05-16T04:57:10.742Z,100229.31
2023-05-16T04:58:13.422Z,100229.80
2023-05-16T04:59:16.266Z,100229.02
2023-05-16T05:00:19.511Z,100229.86
2023-05-16T05:01:22.387Z,100232.11
2023-05-16T05:02:25.503Z,100232.91
2023-05-16T05:03:28.280Z,100234.58
2023-05-16T05:04:31.090Z,100245.58
2023-05-16T05:05:34.217Z,100239.93
2023-05-16T05:06:37.650Z,100240.27
2023-05-16T05:07:41.184Z,100240.41
2023-05-16T05:08:44.062Z,100240.08
2023-05-16T05:09:46.794Z,100240.74
2023-05-16T05:10:49.640Z,100237.68
2023-05-16T05:11:52.721Z,100245.51
2023-05-16T05:12:55.705Z,100242.98
2023-05-16T05:13:58.471Z,100244.60
2023-05-16T05:15:01.338Z,100240.61
2023-05-16T05:16:04.978Z,100244.18
2023-05-16T05:17:07.783Z,100245.19
2023-05-16T05:18:10.988Z,100249.52
2023-05-16T05:19:13.938Z,100249.30
2023-05-16T05:20:16.932Z,100247.57
2023-05-16T05:21:20.367Z,100251.91
2023-05-16T05:22:23.213Z,100247.94
2023-05-16T05:23:26.189Z,100252.59
2023-05-16T05:24:28.950Z,100255.14
2023-05-16T05:25:34.821Z,100255.20
2023-05-16T05:26:38.594Z,100258.33
2023-05-16T05:27:41.454Z,100260.23
2023-05-16T05:28:53.804Z,100262.73
2023-05-16T05:30:04.557Z,100268.36
2023-05-16T05:31:08.295Z,100270.41
2023-05-16T05:32:11.190Z,100267.42
2023-05-16T05:33:14.733Z,100270.65
2023-05-16T05:34:17.688Z,100274.27
2023-05-16T05:35:20.964Z,100272.40
2023-05-16T05:36:23.933Z,100275.48
2023-05-16T05:37:27.085Z,100273.64
2023-05-16T05:38:29.982Z,100273.71
2023-05-16T05:39:32.792Z,100276.98
2023-05-16T05:40:35.805Z,100275.91
2023-05-16T05:41:38.692Z,100279.45
2023-05-16T05:42:42.242Z,100282.40
2023-05-16T05:43:46.272Z,100285.23
2023-05-16T05:44:49.050Z,100280.58
2023-05-16T05:45:52.286Z,100282.13
2023-05-16T05:46:55.378Z,100282.52
2023-05-16T05:47:58.164Z,100285.70
2023-05-16T05:49:01.324Z,100285.16
2023-05-16T05:50:04.486Z,100288.94
2023-05-16T05:51:07.210Z,100286.92
2023-05-16T05:52:09.916Z,100292.79
2023-05-16T05:53:12.653Z,100293.11
2023-05-16T05:54:15.744Z,100290.48
2023-05-16T05:55:18.567Z,100294.59
2023-05-16T05:56:22.031Z,100293.29
2023-05-16T05:57:24.764Z,100289.27
2023-05-16T05:58:27.555Z,100294.94
2023-05-16T05:59:30.529Z,100301.05
2023-05-16T06:00:33.489Z,100301.54
2023-05-16T06:01:36.665Z,100299.09
2023-05-16T06:02:39.645Z,100300.08
2023-05-16T06:03:43.033Z,100301.66
2023-05-16T06:04:45.869Z,100300.05
2023-05-16T06:05:48.992Z,100302.99
2023-05-16T06:06:51.855Z,100307.81
2023-05-16T06:07:54.657Z,100307.65
2023-05-16T06:08:57.650Z,100304.27
2023-05-16T06:10:05.102Z,100307.35
2023-05-16T06:11:08.110Z,100307.59
2023-05-16T06:12:10.960Z,100312.88
2023-05-16T06:13:13.843Z,100315.73
2023-05-16T06:14:16.615Z,100320.09
2023-05-16T06:15:19.491Z,100327.70
2023-05-16T06:16:25.914Z,100332.35
2023-05-16T06:17:28.742Z,100333.55
2023-05-16T06:18:31.557Z,100339.91
2023-05-16T06:19:34.265Z,100343.89
2023-05-16T06:20:37.020Z,100350.30
2023-05-16T06:21:39.748Z,100346.02
2023-05-16T06:22:42.462Z,100353.36
2023-05-16T06:23:45.350Z,100354.41
2023-05-16T06:24:48.050Z,100355.88
2023-05-16T06:25:51.032Z,100356.71
2023-05-16T06:26:53.914Z,100355.23
2023-05-16T06:27:57.350Z,100357.75
2023-05-16T06:29:00.165Z,100355.25
2023-05-16T06:30:02.955Z,100352.17
2023-05-16T06:31:05.979Z,100355.98
2023-05-16T06:32:10.390Z,100350.79
2023-05-16T06:33:15.743Z,100348.64
2023-05-16T06:34:18.415Z,100358.48
2023-05-16T06:35:21.355Z,100364.40
2023-05-16T06:36:24.120Z,100363.48
2023-05-16T06:37:26.884Z,100365.65
2023-05-16T06:38:29.590Z,100375.79
2023-05-16T06:39:32.432Z,100376.23
2023-05-16T06:40:35.183Z,100381.95
2023-05-16T06:41:38.002Z,100384.39
2023-05-16T06:42:40.720Z,100382.83
2023-05-16T06:43:43.666Z,100387.02
2023-05-16T06:44:46.902Z,100390.87
2023-05-16T06:45:49.812Z,100390.91
2023-05-16T06:46:53.078Z,100393.54
2023-05-16T06:47:57.667Z,100398.31
2023-05-16T06:49:00.581Z,100397.41
2023-05-16T06:50:03.451Z,100401.30
2023-05-16T06:51:06.433Z,100396.09
2023-05-16T06:52:09.947Z,100403.79
2023-05-16T06:53:12.982Z,100406.77
2023-05-16T06:54:16.067Z,100408.14
2023-05-16T06:55:19.024Z,100413.13
2023-05-16T06:56:22.011Z,100416.79
2023-05-16T06:57:24.891Z,100419.55
2023-05-16T06:58:27.786Z,100425.52
2023-05-16T06:59:30.681Z,100427.85
2023-05-16T07:00:33.723Z,100428.23
2023-05-16T07:01:36.662Z,100444.63
2023-05-16T07:02:39.559Z,100444.79
2023-05-16T07:03:42.542Z,100443.76
2023-05-16T07:04:45.693Z,100446.49
2023-05-16T07:05:48.514Z,100449.30
2023-05-16T07:06:51.296Z,100461.73
2023-05-16T07:07:54.120Z,100454.58
2023-05-16T07:08:56.991Z,100462.52
2023-05-16T07:09:59.802Z,100464.14
2023-05-16T07:11:02.588Z,100471.41
2023-05-16T07:12:05.742Z,100471.67
2023-05-16T07:13:08.700Z,100475.67
2023-05-16T07:14:11.566Z,100471.85
2023-05-16T07:15:14.404Z,100470.38
2023-05-16T07:16:17.488Z,100466.25
2023-05-16T07:17:20.332Z,100471.90
2023-05-16T07:18:23.312Z,100471.37
2023-05-16T07:19:26.357Z,100476.86
2023-05-16T07:20:29.493Z,100477.23
2023-05-16T07:21:32.397Z,100479.19
2023-05-16T07:22:35.265Z,100478.86
2023-05-16T07:23:38.114Z,100489.13
2023-05-16T07:24:41.108Z,100487.23
2023-05-16T07:25:43.994Z,100491.32
2023-05-16T07:26:46.965Z,100493.39
2023-05-16T07:27:49.868Z,100499.68
2023-05-16T07:28:52.750Z,100494.55
2023-05-16T07:29:55.726Z,100500.58
2023-05-16T07:31:01.560Z,100501.86
2023-05-16T07:32:04.617Z,100503.85
2023-05-16T07:33:09.698Z,100511.66
2023-05-16T07:34:12.655Z,100510.16
2023-05-16T07:35:15.635Z,100514.85
2023-05-16T07:36:18.420Z,100518.98
2023-05-16T07:37:21.250Z,100521.50
2023-05-16T07:38:24.479Z,100519.51
2023-05-16T07:39:27.248Z,100524.57
2023-05-16T07:40:29.993Z,100530.83
2023-05-16T07:41:32.893Z,100528.86
2023-05-16T07:42:35.901Z,100530.34
2023-05-16T07:43:38.767Z,100531.13
2023-05-16T07:44:41.698Z,100538.85
2023-05-16T07:45:44.511Z,100535.17
2023-05-16T07:46:47.406Z,100540.27
2023-05-16T07:47:50.326Z,100540.88
2023-05-16T07:48:53.417Z,100547.90
2023-05-16T07:49:56.469Z,100550.13
2023-05-16T07:50:59.284Z,100552.30
2023-05-16T07:52:02.297Z,100555.27
2023-05-16T07:53:05.144Z,100560.27
2023-05-16T07:54:07.896Z,100569.90
2023-05-16T07:55:10.848Z,100569.80
2023-05-16T07:56:13.628Z,100578.18
2023-05-16T07:57:16.615Z,100576.89
2023-05-16T07:58:19.895Z,100578.46
2023-05-16T07:59:22.743Z,100581.60
2023-05-16T08:00:25.805Z,100584.61
2023-05-16T08:01:28.726Z,100586.21
2023-05-16T08:02:31.759Z,100585.23
2023-05-16T08:03:35.633Z,100587.10
2023-05-16T08:04:38.865Z,100587.08
2023-05-16T08:05:41.928Z,100593.85
2023-05-16T08:06:44.725Z,100592.33
2023-05-16T08:07:47.758Z,100594.39
2023-05-16T08:08:50.874Z,100598.67
2023-05-16T08:09:53.645Z,100597.92
2023-05-16T08:10:56.558Z,100601.05
2023-05-16T08:12:03.532Z,100605.27
2023-05-16T08:13:06.832Z,100608.66
2023-05-16T08:14:09.970Z,100608.44
2023-05-16T08:15:12.848Z,100604.48
2023-05-16T08:16:15.988Z,100608.48
2023-05-16T08:17:19.202Z,100608.10
2023-05-16T08:18:22.840Z,100611.83
2023-05-16T08:19:26.637Z,100621.98
2023-05-16T08:20:29.707Z,100623.92
2023-05-16T08:21:32.697Z,100627.44
2023-05-16T08:22:36.178Z,100628.13
2023-05-16T08:23:39.116Z,100636.48
2023-05-16T08:24:42.240Z,100638.05
2023-05-16T08:25:45.065Z,100641.15
2023-05-16T08:26:47.870Z,100642.05
2023-05-16T08:27:51.512Z,100639.52
2023-05-16T08:28:54.280Z,100644.34
2023-05-16T08:29:57.199Z,100647.25
2023-05-16T08:30:59.994Z,100650.34
2023-05-16T08:32:02.820Z,100648.35
2023-05-16T08:33:06.471Z,100653.55
2023-05-16T08:34:10.434Z,100658.54
2023-05-16T08:35:13.326Z,100661.42
2023-05-16T08:36:16.404Z,100661.23
2023-05-16T08:37:19.360Z,100663.07
2023-05-16T08:38:22.172Z,100669.48
2023-05-16T08:39:25.192Z,100669.68
2023-05-16T08:40:28.400Z,100669.66
2023-05-16T08:41:31.388Z,100676.39
2023-05-16T08:42:34.738Z,100673.36
2023-05-16T08:43:37.756Z,100678.35
2023-05-16T08:44:40.701Z,100679.73
2023-05-16T08:45:43.772Z,100682.80
2023-05-16T08:46:50.686Z,100689.27
2023-05-16T08:47:54.999Z,100690.46
2023-05-16T08:48:59.450Z,100702.05
2023-05-16T08:50:06.433Z,100706.64
2023-05-16T08:51:09.416Z,100704.09
2023-05-16T08:52:13.254Z,100704.85
2023-05-16T08:53:21.608Z,100707.48
2023-05-16T08:54:25.676Z,100713.03
2023-05-16T08:55:30.662Z,100714.65
2023-05-16T08:56:34.659Z,100716.77
2023-05-16T08:57:38.019Z,100718.54
2023-05-16T08:58:41.261Z,100723.44
2023-05-16T08:59:45.098Z,100723.11
2023-05-16T09:00:48.180Z,100723.69
2023-05-16T09:01:51.255Z,100720.04
2023-05-16T09:02:54.645Z,100714.81
2023-05-16T09:03:58.345Z,100716.77
2023-05-16T09:05:01.793Z,100721.23
2023-05-16T09:06:07.308Z,100714.14
2023-05-16T09:07:11.146Z,100720.39
2023-05-16T09:08:14.017Z,100722.98
2023-05-16T09:09:16.980Z,100727.92
2023-05-16T09:10:19.890Z,100730.81
2023-05-16T09:11:22.824Z,100736.27
2023-05-16T09:12:25.725Z,100740.70
2023-05-16T09:13:28.523Z,100740.83
2023-05-16T09:14:31.444Z,100742.94
2023-05-16T09:15:34.673Z,100747.56
2023-05-16T09:16:37.665Z,100751.04
2023-05-16T09:17:43.746Z,100743.29
2023-05-16T09:18:52.946Z,100749.42
2023-05-16T09:19:58.700Z,100747.91
2023-05-16T09:21:01.615Z,100750.52
2023-05-16T09:22:04.715Z,100747.75
2023-05-16T09:23:07.502Z,100748.11
2023-05-16T09:24:10.365Z,100739.80
2023-05-16T09:26:22.846Z,100739.75
2023-05-16T09:27:25.943Z,100736.34
2023-05-16T09:28:28.882Z,100738.35
2023-05-16T09:29:31.934Z,100739.27
2023-05-16T09:30:35.255Z,100740.69
2023-05-16T09:31:38.764Z,100741.67
2023-05-16T09:32:45.189Z,100741.19
2023-05-16T09:33:49.488Z,100739.86
2023-05-16T09:34:53.322Z,100737.91
2023-05-16T09:35:57.328Z,100745.72
2023-05-16T09:37:00.635Z,100745.04
2023-05-16T09:38:03.646Z,100753.04
2023-05-16T09:39:07.288Z,100756.05
2023-05-16T09:40:10.317Z,100757.64
2023-05-16T09:41:13.442Z,100761.66
2023-05-16T09:42:17.265Z,100761.52
2023-05-16T09:43:21.813Z,100763.61
2023-05-16T09:44:24.821Z,100769.20
2023-05-16T09:45:28.071Z,100765.59
2023-05-16T09:46:31.539Z,100767.54
2023-05-16T09:47:35.089Z,100777.38
2023-05-16T09:48:42.024Z,100773.41
2023-05-16T09:49:45.673Z,100793.54
2023-05-16T09:50:52.569Z,100784.67
2023-05-16T09:51:55.834Z,100786.55
2023-05-16T09:52:59.196Z,100788.46
2023-05-16T09:54:01.991Z,100790.46
2023-05-16T09:55:07.254Z,100792.42
2023-05-16T09:56:14.445Z,100792.31
2023-05-16T09:57:20.429Z,100794.05
2023-05-16T09:58:28.373Z,100799.75
2023-05-16T09:59:32.323Z,100803.73
2023-05-16T10:00:35.385Z,100799.89
2023-05-16T10:01:38.323Z,100808.38
2023-05-16T10:02:42.204Z,100816.44
2023-05-16T10:03:45.256Z,100809.11
2023-05-16T10:04:48.135Z,100813.19
2023-05-16T10:05:53.097Z,100813.89
2023-05-16T10:06:57.432Z,100814.36
2023-05-16T10:08:02.486Z,100813.86
2023-05-16T10:09:05.710Z,100821.16
2023-05-16T10:10:08.990Z,100817.94
2023-05-16T10:11:12.006Z,100820.46
2023-05-16T10:12:15.444Z,100826.61
2023-05-16T10:13:22.942Z,100822.25
2023-05-16T10:14:26.488Z,100826.19
2023-05-16T10:15:30.259Z,100839.92
2023-05-16T10:16:33.606Z,100830.73
2023-05-16T10:17:40.074Z,100829.27
2023-05-16T10:18:43.509Z,100826.19
2023-05-16T10:19:47.231Z,100835.42
2023-05-16T10:20:53.765Z,100831.72
2023-05-16T10:22:00.735Z,100820.73
2023-05-16T10:23:04.128Z,100815.50
2023-05-16T10:24:07.690Z,100823.94
2023-05-16T10:25:46.121Z,100820.39
2023-05-16T10:26:49.523Z,100813.63
2023-05-16T10:27:52.796Z,100813.63
2023-05-16T10:28:55.690Z,100811.52
2023-05-16T10:29:58.977Z,100823.16
2023-05-16T10:31:03.113Z,100820.53
2023-05-16T10:32:06.843Z,100817.59
2023-05-16T10:33:19.855Z,100824.05
2023-05-16T10:34:23.445Z,100812.18
2023-05-16T10:35:27.492Z,100811.84
2023-05-16T10:36:31.393Z,100809.44
2023-05-16T10:37:34.966Z,100806.63
2023-05-16T10:38:38.798Z,100815.52
2023-05-16T10:39:41.734Z,100810.15
2023-05-16T10:40:45.103Z,100811.06
2023-05-16T10:41:48.152Z,100808.03
2023-05-16T10:42:57.136Z,100805.70
2023-05-16T10:44:00.112Z,100806.31
2023-05-16T10:45:23.305Z,100803.11
2023-05-16T10:46:27.165Z,100798.64
2023-05-16T10:47:30.064Z,100804.10
2023-05-16T10:48:33.906Z,100804.56
2023-05-16T10:49:40.364Z,100809.63
2023-05-16T10:50:44.313Z,100809.15
2023-05-16T10:51:53.340Z,100813.02
2023-05-16T10:52:56.312Z,100808.86
2023-05-16T10:54:05.053Z,100819.20
2023-05-16T10:55:07.949Z,100812.15
2023-05-16T10:56:11.843Z,100815.75
2023-05-16T10:57:23.336Z,100823.09
2023-05-16T10:58:41.204Z,100814.39
2023-05-16T10:59:48.450Z,100808.82
2023-05-16T11:01:11.372Z,100811.05
2023-05-16T11:02:28.250Z,100816.79
2023-05-16T11:03:31.230Z,100815.22
2023-05-16T11:04:54.348Z,100808.65
2023-05-16T11:06:00.009Z,100823.08
2023-05-16T11:07:03.613Z,100826.65
2023-05-16T11:08:06.814Z,100830.80
2023-05-16T11:09:13.856Z,100834.81
2023-05-16T11:10:16.962Z,100833.95
2023-05-16T11:11:38.733Z,100837.08
2023-05-16T11:12:46.056Z,100836.20
2023-05-16T11:13:55.625Z,100838.48
2023-05-16T11:14:58.607Z,100837.70
2023-05-16T11:16:20.644Z,100849.14
2023-05-16T11:17:24.366Z,100856.83
2023-05-16T11:18:27.422Z,100858.30
2023-05-16T11:19:47.524Z,100853.94
2023-05-16T11:20:51.946Z,100862.27
2023-05-16T11:22:10.110Z,100862.66
2023-05-16T11:23:17.035Z,100860.13
2023-05-16T11:24:32.507Z,100869.05
2023-05-16T11:25:39.388Z,100868.42
2023-05-16T11:26:42.452Z,100865.43
2023-05-16T11:27:46.476Z,100870.52
2023-05-16T11:28:49.845Z,100874.05
2023-05-16T11:29:53.089Z,100877.23
2023-05-16T11:30:58.296Z,100875.39
2023-05-16T11:32:02.429Z,100876.67
2023-05-16T11:33:05.503Z,100878.78
2023-05-16T11:34:08.550Z,100882.14
2023-05-16T11:35:14.533Z,100886.69
2023-05-16T11:36:17.671Z,100893.20
2023-05-16T11:37:20.832Z,100896.24
2023-05-16T11:38:23.779Z,100891.87
2023-05-16T11:39:26.657Z,100898.60
2023-05-16T11:40:29.527Z,100899.45
2023-05-16T11:41:32.832Z,100903.89
2023-05-16T11:42:36.621Z,100899.09
2023-05-16T11:43:41.497Z,100907.63
2023-05-16T11:44:44.976Z,100906.06
2023-05-16T11:45:54.084Z,100905.98
2023-05-16T11:46:57.179Z,100917.36
2023-05-16T11:48:02.990Z,100919.11
2023-05-16T11:49:06.109Z,100918.30
2023-05-16T11:50:13.911Z,100923.13
2023-05-16T11:51:20.291Z,100929.84
2023-05-16T11:52:23.378Z,100938.67
2023-05-16T11:53:28.316Z,100936.46
2023-05-16T11:54:32.336Z,100938.57
2023-05-16T11:56:41.665Z,100944.55
2023-05-16T11:57:44.682Z,100939.88
2023-05-16T11:58:47.690Z,100942.52
2023-05-16T11:59:51.462Z,100948.68
2023-05-16T12:00:54.370Z,100945.20
2023-05-16T12:01:57.180Z,100940.69
2023-05-16T12:03:05.090Z,100941.42
2023-05-16T12:04:09.993Z,100940.86
2023-05-16T12:05:14.010Z,100944.48
2023-05-16T12:06:16.889Z,100942.48
2023-05-16T12:07:21.342Z,100945.41
2023-05-16T12:08:26.342Z,100946.71
2023-05-16T12:09:29.347Z,100946.45
2023-05-16T12:10:33.743Z,100950.40
2023-05-16T12:11:39.559Z,100955.15
2023-05-16T12:12:43.924Z,100953.61
2023-05-16T12:13:46.973Z,100969.67
2023-05-16T12:14:52.936Z,100953.34
2023-05-16T12:15:56.051Z,100951.23